Main page
METAR-TAF:

METAR-TAF

Airports :

Yap, Yap Island, Micronesia

Yap International Airport

latitude: 09-29N, longitude: 138-05E, elevation: 28 m

Current weather observation

The report was made 1 hour and 40 minutes ago, at 14:53 UTC
Wind 5 kt from variable directions
Temperature 27°C
Humidity 89%
Pressure 1009 hPa
Visibility: 19.3 km
Scattered clouds at a height of 1600 ft, Towering cumulus.
Scattered clouds at a height of 13000 ft
Broken clouds at a height of 30000 ft

METAR: PTYA 221453Z VRB05KT 12SM SCT016TCU SCT130 BKN300 27/25 A2979 RMK TCU N AND SE SLP090 8/271 T02670246 403080258 50000

Time: 02:33 (16:33 UTC)

Forecast

The report was made 5 hours and 2 minutes ago, at 11:31 UTC
Forecast valid from 22 at 12 UTC to 23 at 12 UTC
Wind 10 kt from the South/Southeast
Visibility: 10 km
Scattered clouds at a height of 1600 ft
Broken clouds at a height of 13000 ft
showers in vicinity

TAF: PTYA 221131Z 2212/2312 15010KT P6SM VCSH SCT016 BKN130

Weather observations and forecasts of more than 4000 airports (METAR and TAF reports).

The available stations are represented by yellow and red dots on the map.

Hover mouse over dot to see the name of the station.

Then click to see weather observations and forecasts.

To change the map : click on the green buttons with a black cross to zoom in, on the green button with a dash to zoom out, or on the green arrows for adjacent maps.


METAR-TAF: